createdAt,value
2018-07-21T00:02:00.315Z,22.67
2018-07-21T00:04:29.180Z,29.07
2018-07-21T00:06:58.593Z,26.10
2018-07-21T00:09:31.622Z,21.87
2018-07-21T00:12:03.618Z,28.80
2018-07-21T00:14:33.051Z,25.47
2018-07-21T00:17:02.434Z,23.30
2018-07-21T00:19:31.910Z,29.30
2018-07-21T00:22:01.386Z,28.03
2018-07-21T00:24:30.774Z,24.90
2018-07-21T00:27:00.293Z,26.53
2018-07-21T00:29:29.718Z,23.53
2018-07-21T00:31:59.431Z,24.13
2018-07-21T00:34:28.874Z,33.33
2018-07-21T00:36:58.346Z,24.30
2018-07-21T00:39:27.862Z,25.57
2018-07-21T00:41:57.358Z,22.20
2018-07-21T00:44:26.907Z,26.33
2018-07-21T00:46:56.410Z,25.53
2018-07-21T00:49:25.868Z,26.00
2018-07-21T00:51:55.314Z,22.50
2018-07-21T00:54:24.695Z,22.93
2018-07-21T00:56:54.140Z,27.70
2018-07-21T00:59:23.606Z,26.80
2018-07-21T01:01:53.025Z,29.53
2018-07-21T01:04:22.486Z,29.50
2018-07-21T01:06:51.899Z,28.63
2018-07-21T01:09:21.323Z,30.83
2018-07-21T01:11:50.746Z,26.90
2018-07-21T01:14:20.202Z,24.93
2018-07-21T01:16:49.789Z,29.90
2018-07-21T01:19:19.208Z,27.03
2018-07-21T01:21:48.732Z,25.00
2018-07-21T01:24:18.175Z,28.30
2018-07-21T01:26:47.666Z,25.80
2018-07-21T01:29:17.107Z,26.50
2018-07-21T01:31:46.531Z,34.40
2018-07-21T01:34:15.961Z,34.33
2018-07-21T01:36:45.412Z,33.87
2018-07-21T01:39:14.851Z,27.03
2018-07-21T01:41:44.318Z,27.40
2018-07-21T01:44:13.828Z,28.80
2018-07-21T01:46:44.634Z,34.03
2018-07-21T01:49:14.124Z,28.13
2018-07-21T01:51:43.560Z,28.00
2018-07-21T01:54:12.950Z,28.43
2018-07-21T01:56:42.445Z,28.50
2018-07-21T01:59:11.885Z,33.43
2018-07-21T02:01:41.348Z,28.90
2018-07-21T02:04:10.798Z,30.10
2018-07-21T02:06:40.212Z,29.80
2018-07-21T02:09:11.015Z,25.47
2018-07-21T02:11:40.687Z,25.37
2018-07-21T02:14:10.091Z,28.03
2018-07-21T02:16:39.523Z,22.67
2018-07-21T02:19:08.976Z,27.00
2018-07-21T02:21:38.442Z,27.23
2018-07-21T02:24:07.962Z,30.10
2018-07-21T02:26:37.405Z,27.33
2018-07-21T02:29:06.844Z,28.57
2018-07-21T02:31:36.289Z,29.93
2018-07-21T02:34:05.722Z,30.37
2018-07-21T02:36:35.171Z,25.37
2018-07-21T02:39:06.577Z,26.70
2018-07-21T02:41:36.068Z,20.27
2018-07-21T02:44:05.463Z,28.60
2018-07-21T02:46:34.875Z,32.10
2018-07-21T02:49:04.285Z,31.30
2018-07-21T02:51:33.856Z,30.57
2018-07-21T02:54:03.403Z,25.33
2018-07-21T02:56:32.917Z,24.53
2018-07-21T02:59:02.383Z,29.97
2018-07-21T03:01:31.860Z,27.83
2018-07-21T03:04:01.276Z,32.97
2018-07-21T03:06:30.747Z,35.77
2018-07-21T03:09:00.218Z,35.23
2018-07-21T03:11:29.694Z,29.10
2018-07-21T03:13:59.142Z,32.40
2018-07-21T03:16:28.598Z,39.27
2018-07-21T03:18:57.982Z,36.50
2018-07-21T03:21:27.422Z,27.10
2018-07-21T03:23:57.047Z,37.47
2018-07-21T03:26:26.516Z,39.30
2018-07-21T03:28:56.006Z,44.80
2018-07-21T03:31:25.657Z,35.83
2018-07-21T03:33:55.058Z,35.23
2018-07-21T03:36:24.474Z,35.10
2018-07-21T03:38:53.927Z,30.47
2018-07-21T03:41:23.348Z,41.30
2018-07-21T03:43:52.766Z,33.40
2018-07-21T03:46:22.178Z,26.77
2018-07-21T03:48:51.606Z,43.80
2018-07-21T03:51:21.067Z,38.33
2018-07-21T03:53:50.580Z,32.23
2018-07-21T03:56:20.065Z,29.83
2018-07-21T03:58:49.457Z,29.13
2018-07-21T04:01:19.373Z,33.20
2018-07-21T04:03:48.855Z,30.60
2018-07-21T04:06:18.656Z,32.33
2018-07-21T04:08:47.562Z,28.67
2018-07-21T04:11:17.123Z,38.60
2018-07-21T04:13:46.046Z,31.00
2018-07-21T04:16:16.154Z,34.13
2018-07-21T04:18:45.078Z,27.43
2018-07-21T04:21:14.665Z,35.73
2018-07-21T04:23:44.279Z,38.87
2018-07-21T04:26:13.684Z,30.83
2018-07-21T04:28:43.137Z,39.50
2018-07-21T04:31:12.681Z,31.70
2018-07-21T04:33:42.384Z,33.47
2018-07-21T04:36:11.517Z,32.33
2018-07-21T04:38:40.951Z,32.97
2018-07-21T04:41:12.534Z,31.85
2018-07-21T04:43:41.410Z,32.80
2018-07-21T04:46:11.058Z,34.03
2018-07-21T04:48:40.600Z,35.77
2018-07-21T04:51:10.286Z,46.00
2018-07-21T04:53:40.130Z,27.13
2018-07-21T04:56:09.674Z,26.43
2018-07-21T04:58:38.683Z,29.80
2018-07-21T05:01:08.286Z,25.67
2018-07-21T05:03:37.812Z,27.67
2018-07-21T05:06:07.375Z,40.23
2018-07-21T05:08:36.199Z,34.03
2018-07-21T05:11:06.474Z,37.40
2018-07-21T05:13:35.938Z,41.83
2018-07-21T05:16:05.541Z,30.50
2018-07-21T05:18:35.048Z,35.40
2018-07-21T05:21:04.590Z,29.10
2018-07-21T05:23:35.160Z,33.60
2018-07-21T05:26:04.686Z,36.00
2018-07-21T05:28:34.107Z,28.77
2018-07-21T05:31:03.580Z,35.20
2018-07-21T05:33:33.179Z,32.33
2018-07-21T05:36:02.583Z,35.17
2018-07-21T05:38:32.065Z,31.13
2018-07-21T05:41:01.485Z,35.73
2018-07-21T05:43:30.970Z,30.13
2018-07-21T05:46:00.378Z,30.20
2018-07-21T05:48:29.329Z,29.43
2018-07-21T05:50:58.884Z,34.73
2018-07-21T05:53:28.256Z,33.27
2018-07-21T05:55:57.707Z,48.67
2018-07-21T05:58:27.132Z,40.60
2018-07-21T06:00:56.561Z,34.07
2018-07-21T06:03:26.037Z,36.13
2018-07-21T06:05:55.487Z,39.70
2018-07-21T06:08:24.966Z,49.33
2018-07-21T06:10:54.396Z,69.67
2018-07-21T06:13:23.876Z,53.10
2018-07-21T06:15:53.373Z,42.00
2018-07-21T06:18:22.787Z,67.27
2018-07-21T06:20:52.246Z,58.50
2018-07-21T06:23:21.754Z,46.27
2018-07-21T06:25:51.315Z,48.63
2018-07-21T06:28:20.757Z,48.03
2018-07-21T06:30:50.200Z,45.77
2018-07-21T06:33:19.608Z,43.87
2018-07-21T06:35:49.047Z,45.53
2018-07-21T06:38:17.950Z,50.40
2018-07-21T06:40:47.394Z,36.47
2018-07-21T06:43:16.888Z,37.17
2018-07-21T06:45:46.306Z,40.50
2018-07-21T06:48:15.697Z,43.33
2018-07-21T06:50:45.174Z,39.93
2018-07-21T06:53:14.595Z,38.00
2018-07-21T06:55:44.008Z,34.13
2018-07-21T06:58:13.432Z,37.30
2018-07-21T07:00:42.868Z,44.07
2018-07-21T07:03:12.266Z,33.83
2018-07-21T07:05:41.134Z,44.53
2018-07-21T07:08:10.573Z,31.93
2018-07-21T07:10:39.979Z,48.43
2018-07-21T07:13:09.453Z,47.23
2018-07-21T07:15:38.313Z,40.80
2018-07-21T07:18:07.757Z,32.40
2018-07-21T07:20:36.614Z,53.63
2018-07-21T07:23:06.111Z,42.63
2018-07-21T07:25:35.742Z,28.50
2018-07-21T07:28:04.657Z,42.20
2018-07-21T07:30:34.138Z,44.43
2018-07-21T07:33:03.642Z,47.27
2018-07-21T07:35:33.130Z,40.10
2018-07-21T07:38:02.593Z,43.80
2018-07-21T07:40:31.996Z,88.57
2018-07-21T07:43:01.538Z,332.53
2018-07-21T07:45:31.120Z,597.13
2018-07-21T07:48:00.543Z,414.83
2018-07-21T07:50:30.034Z,252.63
2018-07-21T07:53:00.075Z,54.80
2018-07-21T07:55:32.889Z,36.40
2018-07-21T07:58:03.941Z,39.23
2018-07-21T08:00:33.548Z,35.33
2018-07-21T08:03:03.547Z,35.27
2018-07-21T08:05:33.258Z,33.83
2018-07-21T08:08:02.696Z,33.20
2018-07-21T08:10:32.092Z,86.80
2018-07-21T08:13:01.590Z,68.23
2018-07-21T08:15:31.174Z,62.33
2018-07-21T08:18:00.648Z,38.87
2018-07-21T08:20:30.119Z,36.90
2018-07-21T08:22:59.512Z,48.40
2018-07-21T08:25:29.046Z,41.50
2018-07-21T08:27:58.508Z,38.33
2018-07-21T08:30:27.977Z,39.73
2018-07-21T08:32:57.503Z,43.23
2018-07-21T08:35:26.918Z,50.10
2018-07-21T08:37:56.336Z,40.17
2018-07-21T08:40:25.818Z,45.60
2018-07-21T08:42:54.680Z,41.70
2018-07-21T08:45:24.101Z,53.80
2018-07-21T08:47:53.579Z,41.33
2018-07-21T08:50:23.083Z,45.80
2018-07-21T08:52:52.503Z,41.93
2018-07-21T08:55:21.977Z,45.40
2018-07-21T08:57:51.423Z,37.50
2018-07-21T09:00:20.256Z,32.90
2018-07-21T09:02:49.675Z,44.00
2018-07-21T09:05:19.060Z,38.33
2018-07-21T09:07:48.499Z,31.50
2018-07-21T09:10:17.980Z,35.97
2018-07-21T09:12:47.362Z,34.13
2018-07-21T09:15:16.773Z,43.17
2018-07-21T09:17:46.205Z,42.47
2018-07-21T09:20:15.735Z,41.67
2018-07-21T09:22:45.170Z,34.37
2018-07-21T09:25:14.673Z,30.00
2018-07-21T09:27:44.231Z,47.53
2018-07-21T09:30:13.778Z,34.77
2018-07-21T09:32:43.312Z,39.10
2018-07-21T09:35:12.783Z,28.07
2018-07-21T09:37:42.466Z,29.87
2018-07-21T09:40:12.963Z,38.73
2018-07-21T09:42:42.544Z,29.73
2018-07-21T09:45:12.652Z,30.23
2018-07-21T09:47:42.082Z,31.23
2018-07-21T09:50:11.867Z,20.67
2018-07-21T09:52:41.355Z,24.60
2018-07-21T09:55:10.246Z,28.43
2018-07-21T09:57:39.787Z,27.93
2018-07-21T10:00:11.618Z,48.77
2018-07-21T10:02:41.124Z,28.03
2018-07-21T10:05:10.534Z,31.23
2018-07-21T10:07:39.936Z,23.10
2018-07-21T10:10:09.467Z,26.20
2018-07-21T10:12:39.032Z,20.67
2018-07-21T10:15:07.909Z,20.27
2018-07-21T10:17:38.488Z,25.10
2018-07-21T10:20:09.131Z,25.53
2018-07-21T10:22:38.569Z,26.40
2018-07-21T10:25:13.033Z,21.60
2018-07-21T10:27:47.439Z,30.23
2018-07-21T10:30:17.289Z,25.87
2018-07-21T10:32:48.592Z,29.87
2018-07-21T10:35:18.150Z,25.37
2018-07-21T10:37:47.593Z,24.87
2018-07-21T10:40:17.218Z,26.40
2018-07-21T10:42:46.649Z,29.10
2018-07-21T10:45:16.201Z,24.33
2018-07-21T10:47:53.147Z,21.57
2018-07-21T10:50:22.626Z,25.53
2018-07-21T10:52:52.095Z,23.20
2018-07-21T10:55:21.191Z,33.10
2018-07-21T10:57:50.777Z,32.43
2018-07-21T11:00:20.327Z,34.17
2018-07-21T11:02:49.854Z,39.53
2018-07-21T11:05:19.341Z,22.07
2018-07-21T11:07:48.990Z,38.87
2018-07-21T11:10:18.494Z,24.50
2018-07-21T11:12:47.893Z,22.50
2018-07-21T11:15:17.473Z,27.67
2018-07-21T11:17:46.947Z,31.90
2018-07-21T11:20:16.418Z,31.70
2018-07-21T11:22:45.848Z,24.13
2018-07-21T11:25:15.276Z,27.83
2018-07-21T11:27:44.766Z,26.87
2018-07-21T11:30:14.200Z,34.67
2018-07-21T11:32:43.695Z,36.53
2018-07-21T11:35:13.104Z,25.27
2018-07-21T11:37:42.604Z,38.60
2018-07-21T11:40:12.072Z,29.53
2018-07-21T11:42:41.639Z,36.57
2018-07-21T11:45:11.086Z,49.00
2018-07-21T11:47:39.937Z,27.57
2018-07-21T11:50:09.385Z,33.90
2018-07-21T11:52:38.265Z,22.93
2018-07-21T11:55:07.801Z,30.90
2018-07-21T11:57:37.310Z,30.50
2018-07-21T12:00:06.813Z,34.63
2018-07-21T12:02:36.254Z,31.07
2018-07-21T12:05:05.782Z,28.23
2018-07-21T12:07:35.252Z,26.80
2018-07-21T12:10:04.974Z,25.27
2018-07-21T12:12:34.370Z,29.03
2018-07-21T12:15:03.949Z,27.50
2018-07-21T12:17:33.430Z,22.40
2018-07-21T12:20:02.835Z,30.43
2018-07-21T12:22:32.249Z,26.83
2018-07-21T12:25:01.703Z,24.00
2018-07-21T12:27:31.194Z,25.17
2018-07-21T12:30:03.568Z,38.53
2018-07-21T12:32:33.067Z,36.63
2018-07-21T12:35:02.514Z,29.47
2018-07-21T12:37:31.402Z,31.27
2018-07-21T12:40:00.338Z,22.33
2018-07-21T12:42:29.760Z,21.63
2018-07-21T12:44:59.241Z,28.00
2018-07-21T12:47:28.747Z,37.63
2018-07-21T12:49:58.263Z,28.80
2018-07-21T12:52:27.675Z,31.60
2018-07-21T12:54:57.045Z,31.93
2018-07-21T12:57:26.563Z,37.67
2018-07-21T12:59:55.993Z,27.07
2018-07-21T13:02:25.819Z,31.27
2018-07-21T13:04:55.207Z,29.97
2018-07-21T13:07:24.626Z,29.33
2018-07-21T13:09:54.122Z,30.53
2018-07-21T13:12:23.604Z,30.87
2018-07-21T13:14:53.092Z,23.40
2018-07-21T13:17:22.514Z,27.47
2018-07-21T13:19:52.026Z,30.63
2018-07-21T13:22:21.383Z,26.87
2018-07-21T13:24:50.947Z,29.17
2018-07-21T13:27:20.343Z,23.03
2018-07-21T13:29:49.798Z,31.50
2018-07-21T13:32:19.200Z,26.60
2018-07-21T13:34:48.616Z,28.33
2018-07-21T13:37:18.024Z,25.63
2018-07-21T13:39:47.461Z,39.17
2018-07-21T13:42:17.022Z,21.47
2018-07-21T13:44:46.509Z,30.93
2018-07-21T13:47:16.064Z,32.70
2018-07-21T13:49:45.546Z,28.73
2018-07-21T13:52:14.983Z,32.33
2018-07-21T13:54:44.617Z,24.93
2018-07-21T13:57:13.536Z,26.60
2018-07-21T13:59:42.965Z,29.13
2018-07-21T14:02:12.419Z,21.00
2018-07-21T14:04:41.884Z,30.37
2018-07-21T14:07:11.465Z,28.27
2018-07-21T14:09:40.863Z,31.80
2018-07-21T14:12:10.418Z,26.47
2018-07-21T14:14:39.283Z,27.40
2018-07-21T14:17:08.738Z,26.43
2018-07-21T14:19:38.192Z,23.70
2018-07-21T14:22:07.674Z,27.93
2018-07-21T14:24:37.101Z,26.40
2018-07-21T14:27:06.587Z,25.43
2018-07-21T14:29:36.057Z,29.00
2018-07-21T14:32:05.552Z,27.20
2018-07-21T14:34:34.411Z,28.37
2018-07-21T14:37:03.847Z,31.23
2018-07-21T14:39:33.242Z,28.70
2018-07-21T14:42:02.164Z,24.63
2018-07-21T14:44:31.597Z,22.87
2018-07-21T14:47:01.075Z,26.00
2018-07-21T14:49:30.538Z,34.10
2018-07-21T14:51:59.402Z,28.03
2018-07-21T14:54:29.041Z,23.90
2018-07-21T14:56:58.517Z,23.77
2018-07-21T14:59:28.075Z,27.47
2018-07-21T15:01:57.509Z,36.37
2018-07-21T15:04:26.964Z,28.53
2018-07-21T15:06:56.427Z,31.37
2018-07-21T15:09:25.864Z,25.13
2018-07-21T15:11:54.734Z,23.30
2018-07-21T15:14:24.130Z,25.77
2018-07-21T15:16:53.558Z,30.47
2018-07-21T15:19:22.421Z,26.77
2018-07-21T15:21:51.845Z,30.50
2018-07-21T15:24:21.292Z,28.60
2018-07-21T15:26:50.697Z,25.57
2018-07-21T15:29:20.439Z,25.30
2018-07-21T15:31:49.882Z,36.17
2018-07-21T15:34:18.795Z,21.80
2018-07-21T15:36:48.253Z,29.93
2018-07-21T15:39:17.747Z,28.40
2018-07-21T15:41:47.238Z,27.33
2018-07-21T15:44:16.697Z,29.00
2018-07-21T15:46:46.195Z,26.83
2018-07-21T15:49:15.126Z,34.87
2018-07-21T15:51:44.521Z,25.80
2018-07-21T15:54:13.907Z,26.90
2018-07-21T15:56:43.534Z,27.93
2018-07-21T15:59:12.933Z,38.57
2018-07-21T16:01:42.369Z,30.37
2018-07-21T16:04:11.965Z,30.80
2018-07-21T16:06:41.398Z,31.57
2018-07-21T16:09:12.038Z,28.47
2018-07-21T16:11:41.544Z,39.03
2018-07-21T16:14:10.411Z,29.70
2018-07-21T16:16:39.865Z,25.80
2018-07-21T16:19:09.276Z,31.17
2018-07-21T16:21:38.682Z,31.85
2018-07-21T16:24:08.120Z,30.50
2018-07-21T16:26:37.603Z,25.60
2018-07-21T16:29:07.031Z,32.10
2018-07-21T16:31:36.525Z,29.55
2018-07-21T16:34:06.705Z,26.73
2018-07-21T16:36:36.116Z,32.75
2018-07-21T16:39:08.604Z,27.37
2018-07-21T16:41:38.020Z,31.07
2018-07-21T16:44:07.487Z,27.47
2018-07-21T16:46:36.993Z,27.93
2018-07-21T16:49:06.409Z,34.40
2018-07-21T16:51:35.973Z,33.93
2018-07-21T16:54:04.820Z,30.10
2018-07-21T16:56:34.207Z,28.80
2018-07-21T16:59:03.739Z,25.10
2018-07-21T17:01:33.128Z,27.40
2018-07-21T17:04:02.563Z,29.17
2018-07-21T17:06:32.105Z,30.08
2018-07-21T17:09:01.517Z,39.73
2018-07-21T17:11:30.925Z,28.33
2018-07-21T17:14:00.336Z,37.53
2018-07-21T17:16:29.798Z,27.93
2018-07-21T17:18:58.908Z,19.33
2018-07-21T17:21:28.320Z,27.90
2018-07-21T17:23:57.734Z,30.77
2018-07-21T17:26:27.183Z,28.90
2018-07-21T17:28:56.573Z,27.20
2018-07-21T17:31:26.027Z,26.83
2018-07-21T17:33:55.674Z,26.47
2018-07-21T17:36:25.158Z,32.60
2018-07-21T17:38:54.657Z,29.20
2018-07-21T17:41:24.079Z,32.70
2018-07-21T17:43:53.607Z,29.37
2018-07-21T17:46:23.027Z,35.67
2018-07-21T17:48:52.651Z,29.70
2018-07-21T17:51:21.544Z,37.23
2018-07-21T17:53:50.538Z,28.60
2018-07-21T17:56:19.450Z,30.10
2018-07-21T17:58:48.905Z,37.93
2018-07-21T18:01:18.379Z,34.03
2018-07-21T18:03:47.902Z,42.47
2018-07-21T18:06:17.306Z,35.33
2018-07-21T18:08:46.727Z,33.03
2018-07-21T18:11:16.186Z,42.83
2018-07-21T18:13:45.696Z,31.97
2018-07-21T18:16:15.102Z,32.70
2018-07-21T18:18:44.516Z,26.80
2018-07-21T18:21:13.963Z,34.10
2018-07-21T18:23:43.536Z,46.87
2018-07-21T18:26:13.021Z,36.83
2018-07-21T18:28:42.422Z,35.90
2018-07-21T18:31:11.834Z,51.30
2018-07-21T18:33:41.203Z,48.47
2018-07-21T18:36:10.615Z,41.33
2018-07-21T18:38:40.216Z,43.27
2018-07-21T18:41:10.134Z,35.63
2018-07-21T18:43:40.393Z,43.97
2018-07-21T18:46:09.811Z,39.43
2018-07-21T18:48:38.662Z,46.93
2018-07-21T18:51:08.256Z,42.93
2018-07-21T18:53:37.627Z,40.77
2018-07-21T18:56:06.469Z,45.17
2018-07-21T18:58:35.986Z,31.03
2018-07-21T19:01:05.391Z,33.47
2018-07-21T19:03:34.825Z,42.53
2018-07-21T19:06:04.368Z,38.13
2018-07-21T19:08:38.844Z,34.27
2018-07-21T19:11:08.332Z,30.57
2018-07-21T19:13:37.715Z,31.03
2018-07-21T19:16:12.061Z,32.33
2018-07-21T19:18:40.899Z,32.00
2018-07-21T19:21:15.423Z,33.20
2018-07-21T19:23:45.524Z,29.67
2018-07-21T19:26:20.000Z,39.37
2018-07-21T19:28:49.463Z,34.03
2018-07-21T19:31:18.954Z,29.03
2018-07-21T19:33:48.435Z,35.37
2018-07-21T19:36:17.325Z,34.93
2018-07-21T19:38:46.308Z,35.43
2018-07-21T19:41:20.601Z,48.80
2018-07-21T19:43:50.030Z,42.57
2018-07-21T19:46:19.590Z,43.93
2018-07-21T19:48:49.142Z,43.47
2018-07-21T19:51:18.585Z,41.07
2018-07-21T19:53:48.002Z,39.75
2018-07-21T19:56:17.467Z,39.53
2018-07-21T19:58:46.306Z,33.97
2018-07-21T20:01:15.720Z,37.53
2018-07-21T20:03:45.188Z,33.03
2018-07-21T20:06:14.591Z,35.87
2018-07-21T20:08:44.008Z,41.53
2018-07-21T20:11:13.481Z,41.83
2018-07-21T20:13:42.930Z,33.00
2018-07-21T20:16:12.306Z,30.67
2018-07-21T20:18:41.834Z,46.00
2018-07-21T20:21:11.298Z,36.90
2018-07-21T20:23:40.211Z,39.77
2018-07-21T20:26:16.005Z,37.60
2018-07-21T20:28:45.472Z,34.60
2018-07-21T20:31:14.982Z,42.53
2018-07-21T20:33:44.461Z,38.37
2018-07-21T20:36:13.896Z,45.97
2018-07-21T20:38:43.275Z,36.13
2018-07-21T20:41:12.807Z,39.97
2018-07-21T20:43:42.291Z,35.67
2018-07-21T20:46:11.751Z,42.93
2018-07-21T20:48:40.633Z,41.67
2018-07-21T20:51:10.150Z,34.17
2018-07-21T20:53:39.540Z,32.73
2018-07-21T20:56:08.937Z,33.27
2018-07-21T20:58:38.329Z,35.30
2018-07-21T21:01:07.868Z,37.90
2018-07-21T21:03:37.533Z,36.00
2018-07-21T21:06:07.009Z,44.70
2018-07-21T21:08:36.399Z,46.67
2018-07-21T21:11:05.801Z,42.67
2018-07-21T21:13:35.263Z,41.70
2018-07-21T21:16:04.630Z,42.83
2018-07-21T21:18:34.065Z,43.10
2018-07-21T21:21:03.961Z,39.63
2018-07-21T21:23:33.443Z,41.20
2018-07-21T21:26:02.923Z,36.80
2018-07-21T21:28:32.347Z,47.13
2018-07-21T21:31:01.749Z,37.87
2018-07-21T21:33:31.214Z,43.33
2018-07-21T21:36:00.738Z,39.47
